Blackville, Canada
Current Conditions -  °F | °C
As of 7:00 AM on Wednesday 26 Nov 2014 (Local Time) from CZBF Reporting Station
Broken Clouds Broken Clouds  
Wind Chill: 31°   Ceiling: 25000
Heat Index: 37°   Visibility: 15mi
Dew Point: 25°   Wind: 9mph
Humidity: 60%   Direction: 230°SW
Pressure: 30.03"   Gusts: NA
Location:  46.73°N, 65.83°W
Report Text: CZBF 261100Z 23008KT 15SM FEW040 FEW100 SCT120 BKN250 03/M04 A3003 RMK SC2AC1AS1CI3 AC TR PRESRR SLP170
Loading
Personal Weather Stations






























Interactive Weather Map New forecast layout! Learn more

10-Day Weather Forecast

Advertisements
Track Severe Weather on mobile